• Join FlightAware (Why Join?)
  • Login
  • US Flag 
Trick or treat! (Boo!!) 
07:11PM EDT


 

Airport Tracker/Info


-or-


 

Live Flight TrackerFlight Track Log ✈ RPA3196 ✈ 11-May-2013 ✈ KPHL - KBTV

Flight Track Log - Related Links

Times and Time Zones

All times are in EDT time to prevent confusion due to time zone crossing. See the RPA3196 flight status page for this flight to view local times or setup timezone preferences in your user account.

Time Position Orientation Groundspeed Altitude Reporting Facility
EDT Latitude Longitude Course Direction KTS MPH feet Rate Location/Type
09:38AM 39.8667 -75.2833 37° Northeast 160 184 600  Level Philadelphia TRACON
09:39AM 39.8167 -75.3333 218° Southwest 195 224 3,300 1,980 Climbing Philadelphia TRACON
09:40AM 39.7667 -75.2833 142° Southeast 280 322 5,400 2,220 Climbing Philadelphia TRACON
09:41AM 39.8017 -74.7918 105° East  Level FlightAware Approximate
09:41AM 39.7333 -75.1833 113° Southeast 304 350 7,600  Level Philadelphia TRACON
09:42AM 39.7956 -74.6877 37° Northeast  Level FlightAware Approximate
09:42AM 39.7333 -75.0833 90° East 332 382 9,800  Level Philadelphia TRACON
09:43AM 39.8657 -74.6177 37° Northeast  Level FlightAware Approximate
09:43AM 39.7500 -74.9667 79° East 374 430 11,300  Level Philadelphia TRACON
09:44AM 39.9393 -74.5607 37° Northeast  Level FlightAware Approximate
09:46AM 39.8214 -74.6872 72° East 400 460 15,600  Level New York Center
09:47AM 39.9097 -74.6028 36° Northeast 368 423 17,800 2,160 Climbing New York Center
09:48AM 40.0106 -74.5056 36° Northeast 383 441 20,000 1,920 Climbing New York Center
09:49AM 40.0947 -74.4178 39° Northeast 403 464 21,700 1,740 Climbing New York Center
09:50AM 40.1936 -74.3197 37° Northeast 424 488 23,500 1,920 Climbing New York Center
09:51AM 40.3056 -74.2683 19° North 421 484 25,500 1,500 Climbing New York Center
09:52AM 40.4256 -74.2281 14° North 428 493 26,600 1,080 Climbing New York Center
09:54AM 40.6911 -74.1372 15° North 444 511 29,000 1,020 Climbing Boston Center
09:55AM 40.8356 -74.0969 12° North 459 528 30,000 960 Climbing Boston Center
09:56AM 40.9614 -74.0533 15° North 464 534 31,000 960 Climbing Boston Center
09:57AM 41.0931 -74.0100 14° North 475 547 32,000 900 Climbing Boston Center
09:58AM 41.2231 -73.9661 14° North 475 547 32,900 480 Climbing Boston Center
09:59AM 41.3528 -73.9222 14° North 475 547 33,000  Climbing Boston Center
10:00AM 41.4803 -73.8864 12° North 470 541 33,000  Level Boston Center
10:01AM 41.6122 -73.8533 11° North 470 541 33,000  Level Boston Center
10:02AM 41.7417 -73.8228 10° North 470 541 33,000 300 Level Boston Center
10:03AM 41.8650 -73.7978 North 465 535 33,700 480 Climbing Boston Center
10:04AM 41.9944 -73.7697 North 465 535 34,000 120 Climbing Boston Center
10:05AM 42.1219 -73.7389 10° North 465 535 34,000  Level Boston Center
10:06AM 42.2392 -73.7047 12° North 472 543 34,000  Level Boston Center
10:07AM 42.3811 -73.6797 North 472 543 34,000  Level Boston Center
10:08AM 42.5108 -73.6456 11° North 472 543 34,000  Level Boston Center
10:09AM 42.6403 -73.6169 North 467 537 34,000  Level Boston Center
10:10AM 42.7678 -73.5856 10° North 467 537 34,000  Level Boston Center
10:11AM 42.8931 -73.5539 10° North 467 537 34,000 -420 Level Boston Center
10:12AM 43.0206 -73.5219 10° North 467 537 33,200 -960 Descending Boston Center
10:13AM 43.1481 -73.4903 10° North 467 537 32,100 -1,200 Descending Boston Center
10:14AM 43.2775 -73.4611 North 467 537 30,900 -1,500 Descending Boston Center
10:15AM 43.4028 -73.4289 11° North 467 537 29,200 -2,100 Descending Boston Center
10:16AM 43.5258 -73.3994 10° North 462 532 26,700 -2,460 Descending Boston Center
10:17AM 43.6450 -73.3697 10° North 450 518 24,300 -2,280 Descending Boston Center
10:18AM 43.7472 -73.3483 North 416 479 22,200 -2,220 Descending Boston Center
10:19AM 43.8558 -73.3183 11° North 402 463 19,900 -2,400 Descending Boston Center
10:20AM 43.9622 -73.2908 11° North 392 451 17,400 -2,280 Descending Boston Center
10:21AM 44.0667 -73.2664 10° North 386 444 15,400 -1,860 Descending Boston Center
10:22AM 44.1647 -73.2503 North 366 421 13,700 -1,620 Descending Boston Center
10:23AM 44.2564 -73.2603 356° North 338 389 12,200 -1,680 Descending Boston Center
10:24AM 44.3353 -73.2964 342° North 313 360 10,400 -2,280 Descending Boston Center
10:25AM 44.4100 -73.3353 340° North 292 336 7,700 -2,820 Descending Boston Center
10:26AM 44.4806 -73.3797 336° Northwest 287 330 4,800 -2,760 Descending Boston Center
10:27AM 44.5553 -73.4014 348° North 253 291 2,200 -1,320 Descending Boston Center
10:28AM 44.5683 -73.3172 78° East 179 206 2,200  Level Boston Center